Time,TemperatureF,DewpointF,PressureIn,WindDirection,WindDirectionDegrees,WindSpeedMPH,WindSpeedGustMPH,Humidity,HourlyPrecipIn,Conditions,Clouds,dailyrainin,SoftwareType,DateUTC
2013-09-18 00:00:00,65.8,60.5,30.12,WNW,292,0.0,-999.0,83,-99.99,,,0.00,Acu-Link.com,2013-09-18 04:00:00,
2013-09-18 00:15:00,65.7,60.4,30.12,NNW,337,0.0,-999.0,83,-99.99,,,0.00,Acu-Link.com,2013-09-18 04:15:00,
2013-09-18 00:30:00,65.7,60.4,30.12,WNW,292,0.0,-999.0,83,-99.99,,,0.00,Acu-Link.com,2013-09-18 04:30:00,
2013-09-18 00:45:00,65.7,60.0,30.12,WNW,292,0.0,-999.0,82,-99.99,,,0.00,Acu-Link.com,2013-09-18 04:45:00,
2013-09-18 01:00:00,65.8,59.8,30.11,NW,315,0.0,-999.0,81,-99.99,,,0.00,Acu-Link.com,2013-09-18 05:00:00,
2013-09-18 01:15:00,65.8,59.8,30.11,NNW,337,0.0,-999.0,81,-99.99,,,0.00,Acu-Link.com,2013-09-18 05:15:00,
2013-09-18 01:30:00,65.8,59.1,30.11,NE,45,0.0,-999.0,79,-99.99,,,0.00,Acu-Link.com,2013-09-18 05:30:00,
2013-09-18 01:45:00,66.0,58.9,30.11,SSE,157,0.0,-999.0,78,-99.99,,,0.00,Acu-Link.com,2013-09-18 05:45:00,
2013-09-18 02:00:00,66.0,58.2,30.11,NNW,337,4.7,-999.0,76,-99.99,,,0.00,Acu-Link.com,2013-09-18 06:00:00,
2013-09-18 02:15:00,66.0,58.9,30.11,West,270,0.0,-999.0,78,-99.99,,,0.00,Acu-Link.com,2013-09-18 06:15:00,
2013-09-18 02:31:00,66.0,59.3,30.11,South,180,0.0,-999.0,79,-99.99,,,0.00,Acu-Link.com,2013-09-18 06:31:00,
2013-09-18 02:46:00,65.8,58.7,30.11,SSW,202,0.0,-999.0,78,-99.99,,,0.00,Acu-Link.com,2013-09-18 06:46:00,
2013-09-18 03:01:00,65.8,59.1,30.10,South,180,0.0,-999.0,79,-99.99,,,0.00,Acu-Link.com,2013-09-18 07:01:00,
2013-09-18 03:16:00,65.7,57.9,30.10,ESE,112,0.0,-999.0,76,-99.99,,,0.00,Acu-Link.com,2013-09-18 07:16:00,
2013-09-18 03:31:00,65.7,58.3,30.10,ESE,112,0.0,-999.0,77,-99.99,,,0.00,Acu-Link.com,2013-09-18 07:31:00,
2013-09-18 03:46:00,65.7,58.6,30.10,SSW,202,0.0,-999.0,78,-99.99,,,0.00,Acu-Link.com,2013-09-18 07:46:00,
2013-09-18 04:01:00,65.7,58.3,30.10,ESE,112,1.1,-999.0,77,-99.99,,,0.00,Acu-Link.com,2013-09-18 08:01:00,
2013-09-18 04:16:00,65.5,57.7,30.10,ESE,112,0.0,-999.0,76,-99.99,,,0.00,Acu-Link.com,2013-09-18 08:16:00,
2013-09-18 04:32:00,65.5,57.7,30.10,NW,315,0.0,-999.0,76,-99.99,,,0.00,Acu-Link.com,2013-09-18 08:32:00,
2013-09-18 04:47:00,65.5,57.7,30.10,NNW,337,2.7,-999.0,76,-99.99,,,0.00,Acu-Link.com,2013-09-18 08:47:00,
2013-09-18 05:03:00,65.5,57.4,30.10,ESE,112,0.0,-999.0,75,-99.99,,,0.00,Acu-Link.com,2013-09-18 09:03:00,
2013-09-18 05:18:00,65.5,58.1,30.10,NNW,337,0.0,-999.0,77,-99.99,,,0.00,Acu-Link.com,2013-09-18 09:18:00,
2013-09-18 05:48:00,64.9,57.9,30.10,NE,45,0.0,-999.0,78,-99.99,,,0.00,Acu-Link.com,2013-09-18 09:48:00,
2013-09-18 06:03:00,64.9,57.1,30.10,NE,45,0.0,-999.0,76,-99.99,,,0.00,Acu-Link.com,2013-09-18 10:03:00,
2013-09-18 06:18:00,64.8,57.4,30.11,WSW,247,0.0,-999.0,77,-99.99,,,0.00,Acu-Link.com,2013-09-18 10:18:00,
2013-09-18 06:34:00,64.8,57.1,30.12,ESE,112,0.0,-999.0,76,-99.99,,,0.00,Acu-Link.com,2013-09-18 10:34:00,
2013-09-18 06:49:00,64.6,57.6,30.12,South,180,0.0,-999.0,78,-99.99,,,0.00,Acu-Link.com,2013-09-18 10:49:00,
2013-09-18 07:04:00,64.2,56.8,30.12,East,90,1.1,-999.0,77,-99.99,,,0.00,Acu-Link.com,2013-09-18 11:04:00,
2013-09-18 07:19:00,63.9,56.5,30.12,WNW,292,0.0,-999.0,77,-99.99,,,0.00,Acu-Link.com,2013-09-18 11:19:00,
2013-09-18 07:34:00,63.5,56.5,30.13,ESE,112,0.0,-999.0,78,-99.99,,,0.00,Acu-Link.com,2013-09-18 11:34:00,
2013-09-18 07:49:00,63.3,56.7,30.14,West,270,1.1,-999.0,79,-99.99,,,0.00,Acu-Link.com,2013-09-18 11:49:00,
2013-09-18 08:04:00,63.1,56.5,30.13,ESE,112,0.0,-999.0,79,-99.99,,,0.00,Acu-Link.com,2013-09-18 12:04:00,
2013-09-18 08:19:00,63.7,57.4,30.14,SE,135,0.0,-999.0,80,-99.99,,,0.00,Acu-Link.com,2013-09-18 12:19:00,
2013-09-18 08:50:00,64.0,56.3,30.15,SSE,157,2.7,-999.0,76,-99.99,,,0.00,Acu-Link.com,2013-09-18 12:50:00,
2013-09-18 09:05:00,64.4,56.3,30.15,North,0,3.7,-999.0,75,-99.99,,,0.00,Acu-Link.com,2013-09-18 13:05:00,
2013-09-18 09:20:00,64.8,56.3,30.15,NNE,22,1.1,-999.0,74,-99.99,,,0.00,Acu-Link.com,2013-09-18 13:20:00,
2013-09-18 09:35:00,65.1,56.6,30.15,ENE,67,3.2,-999.0,74,-99.99,,,0.00,Acu-Link.com,2013-09-18 13:35:00,
2013-09-18 09:50:00,65.1,57.0,30.15,WSW,247,2.7,-999.0,75,-99.99,,,0.00,Acu-Link.com,2013-09-18 13:50:00,
2013-09-18 10:05:00,65.5,56.6,30.15,SSW,202,1.7,-999.0,73,-99.99,,,0.00,Acu-Link.com,2013-09-18 14:05:00,
2013-09-18 10:20:00,66.7,56.2,30.15,SE,135,1.7,-999.0,69,-99.99,,,0.00,Acu-Link.com,2013-09-18 14:20:00,
2013-09-18 10:36:00,66.7,56.2,30.14,East,90,1.7,-999.0,69,-99.99,,,0.00,Acu-Link.com,2013-09-18 14:36:00,
2013-09-18 10:51:00,66.9,56.8,30.15,ESE,112,2.7,-999.0,70,-99.99,,,0.00,Acu-Link.com,2013-09-18 14:51:00,
2013-09-18 11:06:00,67.8,57.7,30.15,East,90,1.7,-999.0,70,-99.99,,,0.00,Acu-Link.com,2013-09-18 15:06:00,
2013-09-18 11:21:00,68.5,56.7,30.14,ESE,112,2.7,-999.0,66,-99.99,,,0.00,Acu-Link.com,2013-09-18 15:21:00,
2013-09-18 11:36:00,68.7,56.9,30.14,East,90,1.1,-999.0,66,-99.99,,,0.00,Acu-Link.com,2013-09-18 15:36:00,
2013-09-18 11:52:00,70.2,57.4,30.12,ENE,67,2.2,-999.0,64,-99.99,,,0.00,Acu-Link.com,2013-09-18 15:52:00,
2013-09-18 12:07:00,70.7,57.0,30.12,East,90,1.7,-999.0,62,-99.99,,,0.00,Acu-Link.com,2013-09-18 16:07:00,
2013-09-18 12:22:00,70.3,58.4,30.12,East,90,3.2,-999.0,66,-99.99,,,0.00,Acu-Link.com,2013-09-18 16:22:00,
2013-09-18 12:37:00,72.7,59.4,30.11,SE,135,2.7,-999.0,63,-99.99,,,0.00,Acu-Link.com,2013-09-18 16:37:00,
2013-09-18 12:52:00,70.9,57.7,30.11,NNE,22,2.7,-999.0,63,-99.99,,,0.00,Acu-Link.com,2013-09-18 16:52:00,
2013-09-18 13:07:00,72.3,59.0,30.10,ESE,112,2.2,-999.0,63,-99.99,,,0.00,Acu-Link.com,2013-09-18 17:07:00,
2013-09-18 13:22:00,75.7,59.4,30.10,SSE,157,0.0,-999.0,57,-99.99,,,0.00,Acu-Link.com,2013-09-18 17:22:00,
2013-09-18 13:38:00,73.4,59.1,30.10,South,180,0.0,-999.0,61,-99.99,,,0.00,Acu-Link.com,2013-09-18 17:38:00,
2013-09-18 13:53:00,75.7,57.9,30.09,North,0,1.7,-999.0,54,-99.99,,,0.00,Acu-Link.com,2013-09-18 17:53:00,
2013-09-18 14:08:00,75.2,58.9,30.09,NNW,337,1.7,-999.0,57,-99.99,,,0.00,Acu-Link.com,2013-09-18 18:08:00,
2013-09-18 14:23:00,76.1,61.2,30.08,South,180,0.0,-999.0,60,-99.99,,,0.00,Acu-Link.com,2013-09-18 18:23:00,
2013-09-18 14:38:00,76.1,59.7,30.08,West,270,2.2,-999.0,57,-99.99,,,0.00,Acu-Link.com,2013-09-18 18:38:00,
2013-09-18 14:53:00,76.5,61.1,30.07,West,270,0.0,-999.0,59,-99.99,,,0.00,Acu-Link.com,2013-09-18 18:53:00,
2013-09-18 15:23:00,75.9,60.0,30.06,WNW,292,1.7,-999.0,58,-99.99,,,0.00,Acu-Link.com,2013-09-18 19:23:00,
2013-09-18 15:38:00,75.6,60.7,30.06,NE,45,1.1,-999.0,60,-99.99,,,0.00,Acu-Link.com,2013-09-18 19:38:00,
2013-09-18 15:54:00,76.3,60.9,30.05,SE,135,0.0,-999.0,59,-99.99,,,0.00,Acu-Link.com,2013-09-18 19:54:00,
2013-09-18 16:09:00,76.5,59.6,30.04,SW,225,1.7,-999.0,56,-99.99,,,0.00,Acu-Link.com,2013-09-18 20:09:00,
2013-09-18 16:24:00,75.9,60.5,30.04,West,270,2.2,-999.0,59,-99.99,,,0.00,Acu-Link.com,2013-09-18 20:24:00,
2013-09-18 16:39:00,76.1,60.2,30.04,WNW,292,0.0,-999.0,58,-99.99,,,0.00,Acu-Link.com,2013-09-18 20:39:00,
2013-09-18 16:54:00,75.9,60.0,30.03,WNW,292,0.0,-999.0,58,-99.99,,,0.00,Acu-Link.com,2013-09-18 20:54:00,
2013-09-18 17:09:00,76.5,61.1,30.03,SSW,202,0.0,-999.0,59,-99.99,,,0.00,Acu-Link.com,2013-09-18 21:09:00,
2013-09-18 17:24:00,76.3,60.9,30.02,NNW,337,2.2,-999.0,59,-99.99,,,0.00,Acu-Link.com,2013-09-18 21:24:00,
2013-09-18 17:39:00,75.0,62.0,30.03,NW,315,0.0,-999.0,64,-99.99,,,0.00,Acu-Link.com,2013-09-18 21:39:00,
2013-09-18 17:54:00,74.7,63.8,30.02,NW,315,0.0,-999.0,69,-99.99,,,0.00,Acu-Link.com,2013-09-18 21:54:00,
2013-09-18 18:10:00,73.6,62.0,30.02,SSW,202,0.0,-999.0,67,-99.99,,,0.00,Acu-Link.com,2013-09-18 22:10:00,
2013-09-18 18:25:00,73.2,62.8,30.02,West,270,0.0,-999.0,70,-99.99,,,0.00,Acu-Link.com,2013-09-18 22:25:00,
2013-09-18 18:55:00,72.1,62.2,30.02,SW,225,0.0,-999.0,71,-99.99,,,0.00,Acu-Link.com,2013-09-18 22:55:00,
2013-09-18 19:10:00,71.4,61.9,30.02,SSW,202,0.0,-999.0,72,-99.99,,,0.00,Acu-Link.com,2013-09-18 23:10:00,
2013-09-18 19:25:00,70.3,62.4,30.01,South,180,0.0,-999.0,76,-99.99,,,0.00,Acu-Link.com,2013-09-18 23:25:00,
2013-09-18 19:40:00,69.8,61.9,30.01,South,180,0.0,-999.0,76,-99.99,,,0.00,Acu-Link.com,2013-09-18 23:40:00,
2013-09-18 19:56:00,69.1,62.3,30.01,NNW,337,0.0,-999.0,79,-99.99,,,0.00,Acu-Link.com,2013-09-18 23:56:00,
2013-09-18 20:11:00,68.2,62.5,30.02,South,180,0.0,-999.0,82,-99.99,,,0.00,Acu-Link.com,2013-09-19 00:11:00,
2013-09-18 20:26:00,67.3,62.6,30.02,South,180,0.0,-999.0,85,-99.99,,,0.00,Acu-Link.com,2013-09-19 00:26:00,
2013-09-18 20:41:00,66.6,62.6,30.02,South,180,0.0,-999.0,87,-99.99,,,0.00,Acu-Link.com,2013-09-19 00:41:00,
2013-09-18 20:56:00,66.2,62.2,30.03,SSW,202,0.0,-999.0,87,-99.99,,,0.00,Acu-Link.com,2013-09-19 00:56:00,
2013-09-18 21:11:00,65.5,62.5,30.03,SSW,202,0.0,-999.0,90,-99.99,,,0.00,Acu-Link.com,2013-09-19 01:11:00,
2013-09-18 21:26:00,65.3,62.6,30.04,NW,315,0.0,-999.0,91,-99.99,,,0.00,Acu-Link.com,2013-09-19 01:26:00,
2013-09-18 21:41:00,64.9,62.5,30.04,SSW,202,0.0,-999.0,92,-99.99,,,0.00,Acu-Link.com,2013-09-19 01:41:00,
2013-09-18 21:57:00,64.6,62.5,30.04,SW,225,0.0,-999.0,93,-99.99,,,0.00,Acu-Link.com,2013-09-19 01:57:00,
2013-09-18 22:12:00,64.2,62.4,30.04,SSW,202,0.0,-999.0,94,-99.99,,,0.00,Acu-Link.com,2013-09-19 02:12:00,
2013-09-18 22:27:00,63.9,62.4,30.05,SSW,202,0.0,-999.0,95,-99.99,,,0.00,Acu-Link.com,2013-09-19 02:27:00,
2013-09-18 22:42:00,63.5,62.0,30.05,SSW,202,0.0,-999.0,95,-99.99,,,0.00,Acu-Link.com,2013-09-19 02:42:00,
2013-09-18 22:57:00,63.3,62.1,30.04,SSW,202,0.0,-999.0,96,-99.99,,,0.00,Acu-Link.com,2013-09-19 02:57:00,
2013-09-18 23:12:00,63.1,61.9,30.04,SSW,202,0.0,-999.0,96,-99.99,,,0.00,Acu-Link.com,2013-09-19 03:12:00,
2013-09-18 23:27:00,63.0,62.1,30.04,SW,225,0.0,-999.0,97,-99.99,,,0.00,Acu-Link.com,2013-09-19 03:27:00,
2013-09-18 23:43:00,63.0,62.1,30.04,SSE,157,0.0,-999.0,97,-99.99,,,0.00,Acu-Link.com,2013-09-19 03:43:00,
2013-09-18 23:58:00,63.0,62.4,30.03,NNE,22,0.0,-999.0,98,-99.99,,,0.00,Acu-Link.com,2013-09-19 03:58:00,